Time;durP1;ratioP1;P1;durP2;ratioP2;P2;SDS_P1;SDS_P2;PMS_P1;PMS_P2;Temp;Humidity;BMP_temperature;BMP_pressure;BME280_temperature;BME280_humidity;BME280_pressure;Samples;Min_cycle;Max_cycle;Signal;HPM_P1;HPM_P2
2021/12/07 00:01:23;;;;;;;45.67;22.50;;;;;;;;;;4978586;28;20064;-73
2021/12/07 00:03:49;;;;;;;42.50;21.75;;;;;;;;;;4979879;28;20034;-73
2021/12/07 00:06:16;;;;;;;45.08;22.40;;;;;;;;;;4980475;28;20142;-73
2021/12/07 00:08:42;;;;;;;46.13;22.48;;;;;;;;;;4964196;28;20043;-73
2021/12/07 00:11:09;;;;;;;46.85;23.50;;;;;;;;;;4960914;28;20105;-74
2021/12/07 00:13:38;;;;;;;46.75;24.02;;;;;;;;;;4963398;28;20027;-73
2021/12/07 00:16:07;;;;;;;49.83;24.30;;;;;;;;;;4965947;28;20082;-73
2021/12/07 00:18:34;;;;;;;51.53;25.55;;;;;;;;;;4963390;28;21583;-73
2021/12/07 00:21:00;;;;;;;54.65;26.35;;;;;;;;;;4962939;28;20031;-74
2021/12/07 00:23:26;;;;;;;56.35;28.60;;;;;;;;;;4985140;28;20093;-73
2021/12/07 00:25:52;;;;;;;53.22;27.52;;;;;;;;;;4963248;28;20034;-74
2021/12/07 00:28:21;;;;;;;54.35;26.13;;;;;;;;;;4960510;28;20046;-74
2021/12/07 00:30:48;;;;;;;51.80;25.77;;;;;;;;;;4960592;28;20080;-74
2021/12/07 00:33:30;;;;;;;58.03;26.10;;;;;;;;;;4982959;28;20039;-74
2021/12/07 00:35:56;;;;;;;50.40;24.52;;;;;;;;;;4962187;28;20051;-73
2021/12/07 00:38:24;;;;;;;54.60;25.23;;;;;;;;;;4963146;28;20879;-74
2021/12/07 00:40:50;;;;;;;53.40;24.02;;;;;;;;;;4962574;28;20019;-74
2021/12/07 00:43:17;;;;;;;52.50;25.02;;;;;;;;;;4965166;28;20035;-73
2021/12/07 00:45:45;;;;;;;59.92;26.40;;;;;;;;;;4963937;28;20031;-73
2021/12/07 00:48:12;;;;;;;54.20;25.38;;;;;;;;;;4965648;28;20400;-73
2021/12/07 00:50:39;;;;;;;53.70;25.52;;;;;;;;;;4961383;28;20099;-73
2021/12/07 00:53:05;;;;;;;58.63;26.15;;;;;;;;;;4976077;28;20043;-73
2021/12/07 00:55:33;;;;;;;53.25;25.30;;;;;;;;;;4969079;28;20109;-73
2021/12/07 00:58:06;;;;;;;60.47;26.55;;;;;;;;;;4983899;28;21697;-73
2021/12/07 01:00:32;;;;;;;55.53;25.95;;;;;;;;;;4965291;28;20035;-73
2021/12/07 01:02:58;;;;;;;54.88;26.75;;;;;;;;;;4968208;28;20142;-73
2021/12/07 01:05:30;;;;;;;62.08;28.00;;;;;;;;;;4965992;28;20041;-73
2021/12/07 01:26:58;;;;;;;90.93;36.80;;;;;;;;;;4963082;28;20074;-73
2021/12/07 01:29:26;;;;;;;93.95;37.03;;;;;;;;;;4969127;28;20113;-74
2021/12/07 01:32:13;;;;;;;90.82;37.35;;;;;;;;;;4967329;28;20038;-74
2021/12/07 02:00:55;;;;;;;81.22;32.17;;;;;;;;;;4963576;28;20066;-74
2021/12/07 02:03:21;;;;;;;83.35;33.92;;;;;;;;;;4964343;28;20031;-73
2021/12/07 02:05:48;;;;;;;87.07;31.60;;;;;;;;;;4965227;28;20035;-74
2021/12/07 02:08:14;;;;;;;86.60;32.55;;;;;;;;;;4962566;28;20031;-76
2021/12/07 02:10:41;;;;;;;99.82;32.70;;;;;;;;;;4978198;28;20051;-75
2021/12/07 02:13:21;;;;;;;88.57;30.20;;;;;;;;;;4983249;28;20055;-74
2021/12/07 02:15:47;;;;;;;89.13;27.98;;;;;;;;;;4977478;28;20917;-74
2021/12/07 02:18:13;;;;;;;76.80;23.85;;;;;;;;;;4962724;28;20474;-74
2021/12/07 02:20:39;;;;;;;72.53;22.42;;;;;;;;;;4965246;28;20106;-74
2021/12/07 02:23:05;;;;;;;62.30;19.60;;;;;;;;;;4970508;28;20111;-74
2021/12/07 02:25:32;;;;;;;63.05;16.58;;;;;;;;;;4969179;28;20404;-74
2021/12/07 02:27:59;;;;;;;56.20;13.15;;;;;;;;;;4962998;28;20027;-74
2021/12/07 02:30:26;;;;;;;60.03;12.80;;;;;;;;;;4979298;28;20034;-74
2021/12/07 02:32:54;;;;;;;55.72;11.82;;;;;;;;;;4966145;28;20041;-73
2021/12/07 02:35:25;;;;;;;63.13;10.02;;;;;;;;;;4966869;28;20027;-74
2021/12/07 02:37:52;;;;;;;33.50;9.02;;;;;;;;;;4968124;28;20041;-74
2021/12/07 02:40:18;;;;;;;49.13;9.95;;;;;;;;;;4969150;28;20031;-73
2021/12/07 02:42:45;;;;;;;31.65;6.10;;;;;;;;;;4966560;28;20039;-73
2021/12/07 02:45:11;;;;;;;36.45;6.47;;;;;;;;;;4968720;28;20046;-73
2021/12/07 02:47:37;;;;;;;27.15;7.32;;;;;;;;;;4967268;28;20097;-73
2021/12/07 02:50:04;;;;;;;22.58;4.18;;;;;;;;;;4968595;28;20192;-73
2021/12/07 02:52:30;;;;;;;23.10;3.95;;;;;;;;;;4979243;28;20030;-73
2021/12/07 02:54:56;;;;;;;15.93;3.90;;;;;;;;;;4966950;28;20027;-73
2021/12/07 02:57:22;;;;;;;11.02;2.55;;;;;;;;;;4968323;28;20465;-71
2021/12/07 02:59:57;;;;;;;17.05;3.53;;;;;;;;;;4967250;28;20033;-72
2021/12/07 03:02:24;;;;;;;11.30;2.60;;;;;;;;;;4966556;28;20035;-72
2021/12/07 03:05:06;;;;;;;14.73;3.10;;;;;;;;;;4960276;28;20109;-73
2021/12/07 03:26:45;;;;;;;17.67;3.30;;;;;;;;;;4962561;28;20038;-72
2021/12/07 03:29:10;;;;;;;15.40;2.78;;;;;;;;;;4976856;28;20137;-73
2021/12/07 03:31:36;;;;;;;22.48;3.53;;;;;;;;;;4973972;28;20134;-73
2021/12/07 03:34:04;;;;;;;14.20;2.78;;;;;;;;;;4980006;28;20114;-74
2021/12/07 03:36:30;;;;;;;14.55;2.80;;;;;;;;;;4963820;28;20027;-73
2021/12/07 03:38:56;;;;;;;24.38;3.15;;;;;;;;;;4965634;28;20120;-73
2021/12/07 03:41:23;;;;;;;22.13;4.25;;;;;;;;;;4962474;28;20571;-72
2021/12/07 03:43:49;;;;;;;11.35;2.95;;;;;;;;;;4963545;28;20026;-73
2021/12/07 03:46:16;;;;;;;21.85;2.80;;;;;;;;;;4965618;28;20476;-73
2021/12/07 03:48:43;;;;;;;19.55;4.20;;;;;;;;;;4967342;28;20035;-73
2021/12/07 03:51:09;;;;;;;14.60;3.03;;;;;;;;;;4962051;28;20381;-73
2021/12/07 03:53:35;;;;;;;16.15;3.17;;;;;;;;;;4960739;28;20123;-72
2021/12/07 03:56:03;;;;;;;21.85;4.22;;;;;;;;;;4964445;28;20201;-74
2021/12/07 03:58:29;;;;;;;28.67;3.85;;;;;;;;;;4965640;28;20027;-73
2021/12/07 04:00:56;;;;;;;18.08;3.72;;;;;;;;;;4969882;28;20093;-73
2021/12/07 04:03:22;;;;;;;21.33;4.18;;;;;;;;;;4963294;28;20034;-73
2021/12/07 04:05:54;;;;;;;19.83;3.72;;;;;;;;;;4965545;28;20082;-73
2021/12/07 04:08:21;;;;;;;17.33;4.30;;;;;;;;;;4981824;28;20725;-73
2021/12/07 04:10:48;;;;;;;28.20;4.18;;;;;;;;;;4966544;28;20050;-73
2021/12/07 04:13:14;;;;;;;27.92;4.15;;;;;;;;;;4967468;28;20031;-73
2021/12/07 04:15:40;;;;;;;28.42;5.72;;;;;;;;;;4966476;28;20029;-74
2021/12/07 04:18:07;;;;;;;29.00;4.45;;;;;;;;;;4978853;28;20030;-73
2021/12/07 04:20:33;;;;;;;29.88;4.45;;;;;;;;;;4965042;28;20089;-74
2021/12/07 04:23:00;;;;;;;21.02;4.30;;;;;;;;;;4965227;28;20500;-74
2021/12/07 04:25:26;;;;;;;20.55;3.80;;;;;;;;;;4968469;28;20043;-72
2021/12/07 04:27:53;;;;;;;22.85;4.50;;;;;;;;;;4968296;28;20066;-74
2021/12/07 04:30:24;;;;;;;21.45;4.05;;;;;;;;;;4968941;28;20073;-72
2021/12/07 04:32:51;;;;;;;27.65;4.85;;;;;;;;;;4969166;28;20058;-72
2021/12/07 04:35:17;;;;;;;24.13;5.80;;;;;;;;;;4968342;28;20039;-73
2021/12/07 04:37:43;;;;;;;27.55;4.35;;;;;;;;;;4966101;28;20027;-74
2021/12/07 04:40:12;;;;;;;30.23;5.68;;;;;;;;;;4985174;28;20345;-73
2021/12/07 04:42:38;;;;;;;29.52;4.90;;;;;;;;;;4965283;28;20057;-73
2021/12/07 04:45:08;;;;;;;32.22;5.65;;;;;;;;;;4969719;28;20124;-73
2021/12/07 04:48:05;;;;;;;24.23;5.25;;;;;;;;;;4969737;28;20381;-74
2021/12/07 04:58:26;;;;;;;36.42;6.43;;;;;;;;;;4967923;28;20081;-73
2021/12/07 05:00:52;;;;;;;32.70;5.05;;;;;;;;;;4973076;28;20038;-73
2021/12/07 05:03:18;;;;;;;38.22;5.50;;;;;;;;;;4981426;28;20565;-73
2021/12/07 05:05:49;;;;;;;29.05;6.05;;;;;;;;;;4976311;28;20034;-74
2021/12/07 05:08:21;;;;;;;36.13;4.75;;;;;;;;;;4984265;28;20038;-74
2021/12/07 05:23:56;;;;;;;34.08;6.03;;;;;;;;;;4973131;28;20058;-73
2021/12/07 05:39:49;;;;;;;33.88;6.70;;;;;;;;;;4974976;28;20042;-73
2021/12/07 05:42:15;;;;;;;27.75;6.43;;;;;;;;;;4985276;28;20491;-73
2021/12/07 05:44:41;;;;;;;36.83;6.72;;;;;;;;;;4990921;28;20082;-74
2021/12/07 05:47:08;;;;;;;50.83;8.60;;;;;;;;;;4978672;28;20030;-74
2021/12/07 05:49:34;;;;;;;38.13;6.90;;;;;;;;;;4983024;28;20034;-74
2021/12/07 05:52:00;;;;;;;35.08;7.57;;;;;;;;;;4997417;28;20060;-74
2021/12/07 05:54:26;;;;;;;31.63;6.97;;;;;;;;;;4970865;28;20031;-74
2021/12/07 05:56:52;;;;;;;30.35;8.98;;;;;;;;;;4983543;28;20098;-74
2021/12/07 05:59:18;;;;;;;34.10;6.45;;;;;;;;;;4990647;28;20419;-74
2021/12/07 06:01:44;;;;;;;30.77;7.22;;;;;;;;;;4979478;28;20035;-74
2021/12/07 06:04:11;;;;;;;32.78;7.13;;;;;;;;;;4974527;28;20049;-74
2021/12/07 06:06:37;;;;;;;46.30;7.93;;;;;;;;;;4991653;28;20068;-74
2021/12/07 06:09:03;;;;;;;37.35;6.22;;;;;;;;;;4968871;28;20042;-75
2021/12/07 06:11:29;;;;;;;34.45;6.28;;;;;;;;;;4984550;28;20039;-73
2021/12/07 06:13:55;;;;;;;31.10;7.20;;;;;;;;;;4972548;28;20077;-73
2021/12/07 06:16:21;;;;;;;32.40;6.50;;;;;;;;;;4981108;28;20116;-73
2021/12/07 06:18:48;;;;;;;32.53;6.20;;;;;;;;;;4968311;28;20023;-73
2021/12/07 06:21:14;;;;;;;33.40;6.55;;;;;;;;;;4993066;28;20030;-74
2021/12/07 06:23:40;;;;;;;26.25;5.55;;;;;;;;;;4969864;28;20350;-73
2021/12/07 06:26:06;;;;;;;27.55;6.50;;;;;;;;;;4980244;28;20499;-74
2021/12/07 06:28:33;;;;;;;31.30;6.47;;;;;;;;;;4971286;28;20062;-73
2021/12/07 06:30:59;;;;;;;27.52;6.15;;;;;;;;;;4965281;28;20031;-73
2021/12/07 06:33:26;;;;;;;30.83;7.43;;;;;;;;;;4972885;28;20031;-73
2021/12/07 06:35:57;;;;;;;29.00;7.60;;;;;;;;;;4988990;28;20031;-73
2021/12/07 06:38:23;;;;;;;27.23;6.35;;;;;;;;;;4968253;28;20063;-73
2021/12/07 06:40:50;;;;;;;30.45;6.38;;;;;;;;;;4974365;28;20508;-73
2021/12/07 06:43:16;;;;;;;29.17;6.22;;;;;;;;;;4998104;28;20480;-72
2021/12/07 06:45:42;;;;;;;23.48;7.03;;;;;;;;;;4973785;28;20034;-73
2021/12/07 06:48:08;;;;;;;31.08;7.13;;;;;;;;;;4971568;28;20035;-72
2021/12/07 06:50:35;;;;;;;35.13;8.60;;;;;;;;;;4975731;28;20117;-72
2021/12/07 06:53:02;;;;;;;25.17;8.20;;;;;;;;;;4955344;28;20075;-72
2021/12/07 06:55:28;;;;;;;33.65;7.85;;;;;;;;;;4969951;28;20153;-72
2021/12/07 06:57:54;;;;;;;36.75;9.10;;;;;;;;;;4974587;28;20053;-72
2021/12/07 07:00:21;;;;;;;38.38;8.82;;;;;;;;;;4969396;28;20034;-73
2021/12/07 07:02:47;;;;;;;31.98;7.88;;;;;;;;;;4968495;28;20031;-73
2021/12/07 07:05:13;;;;;;;37.85;8.43;;;;;;;;;;4979520;28;20213;-73
2021/12/07 07:07:40;;;;;;;42.58;9.88;;;;;;;;;;4978865;28;20110;-73
2021/12/07 07:10:06;;;;;;;44.17;9.90;;;;;;;;;;4968003;28;20077;-75
2021/12/07 07:12:32;;;;;;;42.42;10.25;;;;;;;;;;4971211;28;20027;-72
2021/12/07 07:14:58;;;;;;;37.85;9.75;;;;;;;;;;4966537;28;20110;-72
2021/12/07 07:17:24;;;;;;;30.25;9.27;;;;;;;;;;4968313;28;20022;-72
2021/12/07 07:19:50;;;;;;;43.97;11.27;;;;;;;;;;4963996;28;20038;-72
2021/12/07 07:22:16;;;;;;;35.08;9.13;;;;;;;;;;4981440;28;20062;-72
2021/12/07 07:24:43;;;;;;;33.03;9.25;;;;;;;;;;4966487;28;20134;-73
2021/12/07 07:27:09;;;;;;;35.47;8.75;;;;;;;;;;4970066;28;20452;-74
2021/12/07 07:29:35;;;;;;;35.13;9.35;;;;;;;;;;4967740;28;20038;-72
2021/12/07 07:32:02;;;;;;;39.53;9.50;;;;;;;;;;4972079;28;20046;-72
2021/12/07 07:34:28;;;;;;;31.42;9.75;;;;;;;;;;4967129;28;20035;-72
2021/12/07 07:36:54;;;;;;;31.13;8.82;;;;;;;;;;4967995;28;20491;-73
2021/12/07 07:39:20;;;;;;;38.70;8.60;;;;;;;;;;4977280;28;20084;-73
2021/12/07 07:41:46;;;;;;;35.60;9.57;;;;;;;;;;4975093;28;20145;-72
2021/12/07 07:44:12;;;;;;;28.33;8.15;;;;;;;;;;4970088;28;20065;-73
2021/12/07 07:46:38;;;;;;;26.35;8.85;;;;;;;;;;4965414;28;20063;-72
2021/12/07 07:49:04;;;;;;;29.02;8.18;;;;;;;;;;4953539;28;20038;-72
2021/12/07 07:51:31;;;;;;;36.85;8.35;;;;;;;;;;4972475;28;20034;-72
2021/12/07 07:53:59;;;;;;;22.92;8.13;;;;;;;;;;4982004;28;20027;-72
2021/12/07 07:56:25;;;;;;;28.65;9.15;;;;;;;;;;4986248;28;20033;-74
2021/12/07 07:58:51;;;;;;;28.08;7.40;;;;;;;;;;4967820;28;20044;-72
2021/12/07 08:01:17;;;;;;;23.48;8.57;;;;;;;;;;4963676;28;20030;-72
2021/12/07 08:03:43;;;;;;;30.98;9.57;;;;;;;;;;4964977;28;20066;-72
2021/12/07 08:06:09;;;;;;;25.58;8.82;;;;;;;;;;4966674;28;20461;-72
2021/12/07 08:08:36;;;;;;;29.83;8.50;;;;;;;;;;4978111;28;20051;-72
2021/12/07 08:11:03;;;;;;;33.25;9.05;;;;;;;;;;4967174;28;20073;-73
2021/12/07 08:13:32;;;;;;;27.73;8.15;;;;;;;;;;4969843;28;20122;-74
2021/12/07 08:15:59;;;;;;;29.98;9.63;;;;;;;;;;4964017;28;20070;-74
2021/12/07 08:18:25;;;;;;;16.15;7.13;;;;;;;;;;4984325;28;20023;-72
2021/12/07 08:20:51;;;;;;;30.48;9.15;;;;;;;;;;4979861;28;20122;-73
2021/12/07 08:23:17;;;;;;;28.95;7.43;;;;;;;;;;4967725;28;20038;-73
2021/12/07 08:25:45;;;;;;;28.92;8.43;;;;;;;;;;4973750;28;20088;-73
2021/12/07 08:28:13;;;;;;;25.95;7.03;;;;;;;;;;4964569;28;20035;-73
2021/12/07 08:30:40;;;;;;;21.13;7.03;;;;;;;;;;4963953;28;20270;-73
2021/12/07 08:33:06;;;;;;;29.77;7.70;;;;;;;;;;4970085;28;20050;-72
2021/12/07 08:35:33;;;;;;;30.25;9.90;;;;;;;;;;4972276;28;20138;-73
2021/12/07 08:37:59;;;;;;;23.77;7.88;;;;;;;;;;4966044;28;20140;-73
2021/12/07 08:40:28;;;;;;;21.45;7.68;;;;;;;;;;4980419;28;20365;-73
2021/12/07 08:42:54;;;;;;;24.90;8.35;;;;;;;;;;4977729;28;20327;-73
2021/12/07 08:45:20;;;;;;;26.40;7.75;;;;;;;;;;4961495;28;20169;-73
2021/12/07 08:47:47;;;;;;;27.17;7.47;;;;;;;;;;4984028;28;20037;-73
2021/12/07 08:50:15;;;;;;;29.27;7.47;;;;;;;;;;4969917;28;20039;-72
2021/12/07 08:52:42;;;;;;;20.63;7.82;;;;;;;;;;4966224;28;20062;-73
2021/12/07 09:00:27;;;;;;;28.50;7.40;;;;;;;;;;4962323;28;20097;-73
2021/12/07 09:02:53;;;;;;;22.27;6.47;;;;;;;;;;4965834;28;20826;-73
2021/12/07 09:05:19;;;;;;;26.20;6.07;;;;;;;;;;4969613;28;20034;-73
2021/12/07 09:07:46;;;;;;;26.60;6.50;;;;;;;;;;4972449;28;20157;-73
2021/12/07 09:10:13;;;;;;;25.35;6.35;;;;;;;;;;4966704;28;20130;-73
2021/12/07 09:12:39;;;;;;;26.95;6.28;;;;;;;;;;4967002;28;20042;-73
2021/12/07 09:15:05;;;;;;;26.25;7.38;;;;;;;;;;4966906;28;20038;-73
2021/12/07 09:17:31;;;;;;;23.35;5.97;;;;;;;;;;4983215;28;20034;-72
2021/12/07 09:19:57;;;;;;;26.25;6.78;;;;;;;;;;4969330;28;20030;-72
2021/12/07 09:22:23;;;;;;;23.45;6.40;;;;;;;;;;4978446;28;20030;-72
2021/12/07 09:24:49;;;;;;;22.60;6.63;;;;;;;;;;4973929;28;20035;-73
2021/12/07 09:27:15;;;;;;;20.00;6.13;;;;;;;;;;4978819;28;20031;-72
2021/12/07 09:29:42;;;;;;;30.98;7.35;;;;;;;;;;4966969;28;20037;-72
2021/12/07 09:32:08;;;;;;;28.35;6.35;;;;;;;;;;4967465;28;21415;-72
2021/12/07 09:34:34;;;;;;;15.10;6.05;;;;;;;;;;4982613;28;20138;-72
2021/12/07 09:37:00;;;;;;;28.33;7.10;;;;;;;;;;4968799;28;20042;-73
2021/12/07 09:39:26;;;;;;;26.30;7.70;;;;;;;;;;4972015;28;20034;-73
2021/12/07 09:41:53;;;;;;;27.85;8.05;;;;;;;;;;4980679;28;20118;-73
2021/12/07 09:44:19;;;;;;;39.75;9.32;;;;;;;;;;4971994;28;20077;-73
2021/12/07 09:46:45;;;;;;;33.13;8.60;;;;;;;;;;4983802;28;20460;-73
2021/12/07 09:49:12;;;;;;;28.60;8.88;;;;;;;;;;4972081;28;20389;-73
2021/12/07 09:51:39;;;;;;;31.25;9.32;;;;;;;;;;4998980;28;20023;-73
2021/12/07 09:54:05;;;;;;;32.08;8.27;;;;;;;;;;4979410;28;20030;-73
2021/12/07 09:56:32;;;;;;;36.47;9.50;;;;;;;;;;4976419;28;20088;-74
2021/12/07 09:58:59;;;;;;;41.03;11.18;;;;;;;;;;4970425;28;20081;-73
2021/12/07 10:01:26;;;;;;;27.20;8.75;;;;;;;;;;4968877;28;20153;-73
2021/12/07 10:03:53;;;;;;;44.08;10.63;;;;;;;;;;4974075;28;20081;-73
2021/12/07 10:06:19;;;;;;;38.58;9.95;;;;;;;;;;4974579;28;20639;-72
2021/12/07 10:08:46;;;;;;;31.15;9.05;;;;;;;;;;4989164;28;20027;-73
2021/12/07 10:11:12;;;;;;;34.60;10.15;;;;;;;;;;4967650;28;20058;-73
2021/12/07 10:13:40;;;;;;;45.85;11.13;;;;;;;;;;4970717;28;20408;-73
2021/12/07 10:16:07;;;;;;;33.20;9.98;;;;;;;;;;4971541;28;20561;-73
2021/12/07 10:18:36;;;;;;;41.10;12.07;;;;;;;;;;4971702;28;20027;-72
2021/12/07 10:21:24;;;;;;;35.67;10.50;;;;;;;;;;4966169;28;20477;-72
2021/12/07 10:23:56;;;;;;;47.45;12.30;;;;;;;;;;4967487;28;20038;-73
2021/12/07 10:26:24;;;;;;;38.28;11.40;;;;;;;;;;4965817;28;20062;-72
2021/12/07 10:28:55;;;;;;;44.03;10.15;;;;;;;;;;4975547;28;20034;-73
2021/12/07 10:31:22;;;;;;;43.25;11.85;;;;;;;;;;4988786;28;20116;-74
2021/12/07 10:33:52;;;;;;;28.13;11.20;;;;;;;;;;4976601;28;20022;-74
2021/12/07 10:36:24;;;;;;;32.55;10.63;;;;;;;;;;4965664;28;20037;-72
2021/12/07 10:38:57;;;;;;;28.52;9.98;;;;;;;;;;4976958;28;20035;-73
2021/12/07 10:41:25;;;;;;;42.63;10.52;;;;;;;;;;4967175;28;20105;-72
2021/12/07 10:44:06;;;;;;;29.58;10.57;;;;;;;;;;4980475;28;20038;-73
2021/12/07 10:46:41;;;;;;;40.67;11.85;;;;;;;;;;4966758;28;20031;-74
2021/12/07 10:49:11;;;;;;;36.55;11.82;;;;;;;;;;4965552;28;20110;-72
2021/12/07 10:51:37;;;;;;;41.80;10.80;;;;;;;;;;4965867;28;20031;-73
2021/12/07 10:54:04;;;;;;;35.40;10.82;;;;;;;;;;4964616;28;20070;-73
2021/12/07 10:56:34;;;;;;;32.80;9.15;;;;;;;;;;4968023;28;20030;-73
2021/12/07 10:59:02;;;;;;;37.65;11.18;;;;;;;;;;4916487;28;20051;-72
2021/12/07 11:01:34;;;;;;;33.65;10.40;;;;;;;;;;4997127;28;20507;-73
2021/12/07 11:04:22;;;;;;;33.05;10.35;;;;;;;;;;4993799;28;20484;-73
2021/12/07 11:07:06;;;;;;;33.03;10.63;;;;;;;;;;4984975;28;20027;-74
2021/12/07 11:10:04;;;;;;;35.10;9.48;;;;;;;;;;4988765;28;20105;-74
2021/12/07 11:12:36;;;;;;;40.47;12.95;;;;;;;;;;5004665;28;20099;-74
2021/12/07 11:15:11;;;;;;;36.28;11.20;;;;;;;;;;4983386;28;20040;-74
2021/12/07 11:17:37;;;;;;;35.78;9.02;;;;;;;;;;4981408;28;20042;-75
2021/12/07 11:20:05;;;;;;;48.28;10.65;;;;;;;;;;4986568;28;20098;-74
2021/12/07 11:22:33;;;;;;;28.63;7.88;;;;;;;;;;4984028;28;20161;-75
2021/12/07 11:25:03;;;;;;;34.33;8.75;;;;;;;;;;4981800;28;20033;-74
2021/12/07 11:30:19;;;;;;;25.98;8.23;;;;;;;;;;4984899;28;20125;-72
2021/12/07 11:32:51;;;;;;;30.88;8.23;;;;;;;;;;4978972;28;20112;-73
2021/12/07 11:35:26;;;;;;;32.40;7.65;;;;;;;;;;4987059;28;20477;-73
2021/12/07 11:37:54;;;;;;;33.47;8.65;;;;;;;;;;4986696;28;20082;-74
2021/12/07 11:40:25;;;;;;;28.98;8.32;;;;;;;;;;4986781;28;20038;-73
2021/12/07 11:42:51;;;;;;;28.10;8.05;;;;;;;;;;4981077;28;20019;-73
2021/12/07 11:45:19;;;;;;;36.38;8.55;;;;;;;;;;4984855;28;20111;-73
2021/12/07 11:47:51;;;;;;;31.27;9.65;;;;;;;;;;4982119;28;20531;-73
2021/12/07 11:50:29;;;;;;;42.25;8.80;;;;;;;;;;4982402;28;20076;-72
2021/12/07 11:53:04;;;;;;;31.88;8.88;;;;;;;;;;4983944;28;20912;-73
2021/12/07 11:55:31;;;;;;;30.17;7.63;;;;;;;;;;4986131;28;20026;-73
2021/12/07 11:57:58;;;;;;;31.77;9.77;;;;;;;;;;4989551;28;20053;-71
2021/12/07 12:00:34;;;;;;;28.35;7.55;;;;;;;;;;4981149;28;20026;-72
2021/12/07 12:03:00;;;;;;;35.90;8.75;;;;;;;;;;4988799;28;20030;-72
2021/12/07 12:05:26;;;;;;;28.27;7.60;;;;;;;;;;4984463;28;20034;-72
2021/12/07 12:07:52;;;;;;;33.30;8.38;;;;;;;;;;4982868;28;20030;-73
2021/12/07 12:10:20;;;;;;;31.55;7.93;;;;;;;;;;4985151;28;20062;-73
2021/12/07 12:13:08;;;;;;;30.50;7.22;;;;;;;;;;4983572;28;20057;-73
2021/12/07 12:15:42;;;;;;;24.00;6.22;;;;;;;;;;4987980;28;20030;-73
2021/12/07 12:18:19;;;;;;;27.02;6.57;;;;;;;;;;4983559;28;20037;-74
2021/12/07 12:21:12;;;;;;;24.13;7.18;;;;;;;;;;4987499;28;20467;-73
2021/12/07 12:23:41;;;;;;;24.88;6.03;;;;;;;;;;4986655;28;20053;-74
2021/12/07 12:26:09;;;;;;;20.08;6.68;;;;;;;;;;5003822;28;20038;-74
2021/12/07 12:28:36;;;;;;;22.63;5.50;;;;;;;;;;5004699;28;20052;-75
2021/12/07 12:31:03;;;;;;;24.48;5.82;;;;;;;;;;4988920;28;20026;-75
2021/12/07 12:33:51;;;;;;;19.30;6.72;;;;;;;;;;4987096;28;20054;-74
2021/12/07 12:36:18;;;;;;;14.75;5.00;;;;;;;;;;4990129;28;20090;-74
2021/12/07 12:38:48;;;;;;;28.88;6.85;;;;;;;;;;4988650;28;20492;-75
2021/12/07 12:41:15;;;;;;;19.95;4.93;;;;;;;;;;4987561;28;20073;-77
2021/12/07 12:43:53;;;;;;;20.80;4.60;;;;;;;;;;4986465;28;20576;-74
2021/12/07 12:46:22;;;;;;;18.50;5.07;;;;;;;;;;4984118;28;20026;-75
2021/12/07 12:48:55;;;;;;;16.85;4.82;;;;;;;;;;4988173;28;20025;-75
2021/12/07 12:51:22;;;;;;;19.25;4.97;;;;;;;;;;4995558;28;20025;-76
2021/12/07 12:53:48;;;;;;;18.35;5.15;;;;;;;;;;4986594;28;20030;-74
2021/12/07 12:56:23;;;;;;;16.40;4.70;;;;;;;;;;4991132;28;20112;-74
2021/12/07 12:58:53;;;;;;;16.23;4.38;;;;;;;;;;4989955;28;20030;-73
2021/12/07 13:01:20;;;;;;;17.55;4.65;;;;;;;;;;4987733;28;20034;-74
2021/12/07 13:03:46;;;;;;;17.83;5.07;;;;;;;;;;4996528;28;20034;-74
2021/12/07 13:06:15;;;;;;;17.90;5.22;;;;;;;;;;4991614;28;20034;-75
2021/12/07 13:09:00;;;;;;;16.48;5.30;;;;;;;;;;4984782;28;20112;-74
2021/12/07 13:11:34;;;;;;;20.15;5.60;;;;;;;;;;4985223;28;20051;-73
2021/12/07 13:14:00;;;;;;;18.38;4.85;;;;;;;;;;4983890;28;20026;-75
2021/12/07 13:16:27;;;;;;;18.00;4.90;;;;;;;;;;5002678;28;20424;-73
2021/12/07 13:19:00;;;;;;;24.63;7.65;;;;;;;;;;5003066;28;20084;-73
2021/12/07 13:21:27;;;;;;;23.30;5.82;;;;;;;;;;4991211;28;20034;-73
2021/12/07 13:24:02;;;;;;;22.27;5.90;;;;;;;;;;4987596;28;20026;-73
2021/12/07 13:26:28;;;;;;;20.52;5.82;;;;;;;;;;4998812;28;20018;-74
2021/12/07 13:29:06;;;;;;;17.65;5.65;;;;;;;;;;4990335;28;20431;-74
2021/12/07 13:31:37;;;;;;;21.25;6.35;;;;;;;;;;4993479;28;20054;-74
2021/12/07 13:34:03;;;;;;;20.50;6.82;;;;;;;;;;4990417;28;20530;-76
2021/12/07 13:36:54;;;;;;;27.25;6.93;;;;;;;;;;4992650;28;20427;-75
2021/12/07 13:39:21;;;;;;;23.13;5.78;;;;;;;;;;4992109;28;20038;-75
2021/12/07 13:41:57;;;;;;;25.88;6.18;;;;;;;;;;4996551;28;20021;-75
2021/12/07 13:44:23;;;;;;;25.05;6.65;;;;;;;;;;5005175;28;20534;-75
2021/12/07 13:46:57;;;;;;;18.35;5.18;;;;;;;;;;4997979;28;20038;-76
2021/12/07 13:49:23;;;;;;;18.50;6.20;;;;;;;;;;5002911;28;20030;-75
2021/12/07 13:51:50;;;;;;;29.77;6.85;;;;;;;;;;4997056;28;20117;-75
2021/12/07 13:54:17;;;;;;;19.55;7.45;;;;;;;;;;4992084;28;20038;-75
2021/12/07 13:56:44;;;;;;;23.17;8.40;;;;;;;;;;4999065;28;20045;-75
2021/12/07 13:59:14;;;;;;;17.85;6.30;;;;;;;;;;4999650;28;20034;-75
2021/12/07 14:01:47;;;;;;;19.90;6.43;;;;;;;;;;5002006;28;20020;-75
2021/12/07 14:04:13;;;;;;;21.30;5.93;;;;;;;;;;4998479;28;20122;-75
2021/12/07 14:06:45;;;;;;;26.48;6.65;;;;;;;;;;4998699;28;20038;-75
2021/12/07 14:09:11;;;;;;;21.77;6.15;;;;;;;;;;4999080;28;20046;-75
2021/12/07 14:11:38;;;;;;;21.45;6.55;;;;;;;;;;4999058;28;20054;-75
2021/12/07 14:14:12;;;;;;;25.38;6.07;;;;;;;;;;4994615;28;20035;-75
2021/12/07 14:16:38;;;;;;;27.95;7.18;;;;;;;;;;5001992;28;20054;-74
2021/12/07 14:19:04;;;;;;;26.38;6.88;;;;;;;;;;4993465;28;20026;-75
2021/12/07 14:21:30;;;;;;;21.27;7.22;;;;;;;;;;4993910;28;20038;-75
2021/12/07 14:24:04;;;;;;;17.10;6.20;;;;;;;;;;4996760;28;20130;-75
2021/12/07 14:26:34;;;;;;;20.58;6.40;;;;;;;;;;4998870;28;20029;-75
2021/12/07 14:29:05;;;;;;;21.27;7.82;;;;;;;;;;4991603;28;20030;-75
2021/12/07 14:31:44;;;;;;;20.92;6.38;;;;;;;;;;4992256;28;20399;-74
2021/12/07 14:34:15;;;;;;;16.98;6.68;;;;;;;;;;4991602;28;20088;-76
2021/12/07 14:36:43;;;;;;;26.38;7.32;;;;;;;;;;5002075;28;20033;-74
2021/12/07 14:39:15;;;;;;;20.17;6.78;;;;;;;;;;4997714;28;20042;-76
2021/12/07 14:41:47;;;;;;;21.52;6.20;;;;;;;;;;5002971;28;20114;-75
2021/12/07 14:44:17;;;;;;;38.67;7.93;;;;;;;;;;4999043;28;20034;-76
2021/12/07 14:46:43;;;;;;;22.70;6.55;;;;;;;;;;4996062;28;20574;-76
2021/12/07 14:49:09;;;;;;;27.38;6.97;;;;;;;;;;4992950;28;20082;-76
2021/12/07 14:51:36;;;;;;;24.23;7.32;;;;;;;;;;4996038;28;20029;-76
2021/12/07 14:54:04;;;;;;;20.27;7.07;;;;;;;;;;4985700;28;20031;-77
2021/12/07 14:56:31;;;;;;;32.13;9.60;;;;;;;;;;4995960;28;20018;-77
2021/12/07 14:58:59;;;;;;;21.85;5.93;;;;;;;;;;4997081;28;20065;-75
2021/12/07 15:01:26;;;;;;;17.98;5.80;;;;;;;;;;5010662;28;20027;-76
2021/12/07 15:03:54;;;;;;;24.25;6.43;;;;;;;;;;4995252;28;20040;-75
2021/12/07 15:06:21;;;;;;;28.33;7.00;;;;;;;;;;4994300;28;20030;-75
2021/12/07 15:08:47;;;;;;;27.27;6.53;;;;;;;;;;5004117;28;20036;-75
2021/12/07 15:11:14;;;;;;;27.30;6.35;;;;;;;;;;5000404;28;20039;-76
2021/12/07 15:13:41;;;;;;;29.10;6.28;;;;;;;;;;4996601;28;21303;-76
2021/12/07 15:16:09;;;;;;;14.15;6.07;;;;;;;;;;4995103;28;20038;-78
2021/12/07 15:18:45;;;;;;;23.45;5.90;;;;;;;;;;4990519;28;20026;-75
2021/12/07 15:21:23;;;;;;;28.70;6.63;;;;;;;;;;4992332;28;20133;-77
2021/12/07 15:23:51;;;;;;;20.30;5.80;;;;;;;;;;4989901;28;20685;-75
2021/12/07 15:26:18;;;;;;;16.27;4.95;;;;;;;;;;4984696;28;20038;-75
2021/12/07 15:28:59;;;;;;;20.00;4.88;;;;;;;;;;4991678;28;20042;-75
2021/12/07 15:31:27;;;;;;;21.55;7.40;;;;;;;;;;4993591;28;20030;-76
2021/12/07 15:33:53;;;;;;;19.65;6.07;;;;;;;;;;4984973;28;20042;-75
2021/12/07 15:36:21;;;;;;;21.08;5.70;;;;;;;;;;4996190;28;20176;-75
2021/12/07 15:38:48;;;;;;;24.88;6.20;;;;;;;;;;4990614;28;20041;-74
2021/12/07 15:41:14;;;;;;;23.38;8.85;;;;;;;;;;4987255;28;21201;-76
2021/12/07 15:43:43;;;;;;;18.70;5.30;;;;;;;;;;4994006;28;20048;-76
2021/12/07 15:46:16;;;;;;;19.73;5.25;;;;;;;;;;4992958;28;20050;-75
2021/12/07 15:48:44;;;;;;;22.77;4.97;;;;;;;;;;4998604;28;20521;-75
2021/12/07 15:51:10;;;;;;;20.75;5.47;;;;;;;;;;4988522;28;20034;-76
2021/12/07 15:53:38;;;;;;;18.45;6.07;;;;;;;;;;4991480;28;20026;-74
2021/12/07 15:56:05;;;;;;;18.05;5.50;;;;;;;;;;4983123;28;20599;-77
2021/12/07 15:58:31;;;;;;;24.02;4.85;;;;;;;;;;4981200;28;20030;-77
2021/12/07 16:01:00;;;;;;;30.33;13.52;;;;;;;;;;4993803;28;20190;-76
2021/12/07 16:03:30;;;;;;;22.17;6.00;;;;;;;;;;4982067;28;20465;-76
2021/12/07 16:05:58;;;;;;;16.93;4.50;;;;;;;;;;4980582;28;20081;-76
2021/12/07 16:08:28;;;;;;;20.70;4.78;;;;;;;;;;4980206;28;20034;-78
2021/12/07 16:10:56;;;;;;;18.77;4.95;;;;;;;;;;4950636;28;1271873;-76
2021/12/07 16:13:30;;;;;;;18.10;5.38;;;;;;;;;;4985180;28;20034;-77
2021/12/07 16:16:04;;;;;;;19.75;5.40;;;;;;;;;;4982837;28;20384;-76
2021/12/07 16:18:31;;;;;;;28.80;5.53;;;;;;;;;;4977462;28;20039;-76
2021/12/07 16:21:01;;;;;;;18.08;4.97;;;;;;;;;;4981005;28;20062;-75